sensor_id;sensor_type;location;lat;lon;timestamp;pressure;altitude;pressure_sealevel;temperature;humidity
57232;BME280;43488;46.934;8.276;2022-08-25T00:01:58;96533.63;;;18.07;72.39
57232;BME280;43488;46.934;8.276;2022-08-25T00:04:27;96533.69;;;18.12;72.11
57232;BME280;43488;46.934;8.276;2022-08-25T00:06:56;96520.25;;;17.97;72.33
57232;BME280;43488;46.934;8.276;2022-08-25T00:09:25;96528.78;;;17.99;72.14
57232;BME280;43488;46.934;8.276;2022-08-25T00:11:54;96521.09;;;18.03;72.45
57232;BME280;43488;46.934;8.276;2022-08-25T00:14:26;96522.19;;;18.07;72.27
57232;BME280;43488;46.934;8.276;2022-08-25T00:16:54;96519.78;;;18.05;72.56
57232;BME280;43488;46.934;8.276;2022-08-25T00:19:30;96509.06;;;18.00;72.34
57232;BME280;43488;46.934;8.276;2022-08-25T00:22:00;96512.75;;;17.94;72.40
57232;BME280;43488;46.934;8.276;2022-08-25T00:24:28;96513.56;;;17.95;72.31
57232;BME280;43488;46.934;8.276;2022-08-25T00:26:58;96519.16;;;17.93;72.46
57232;BME280;43488;46.934;8.276;2022-08-25T00:29:29;96516.50;;;17.93;72.18
57232;BME280;43488;46.934;8.276;2022-08-25T00:31:58;96522.81;;;17.87;71.82
57232;BME280;43488;46.934;8.276;2022-08-25T00:34:30;96510.50;;;17.81;72.32
57232;BME280;43488;46.934;8.276;2022-08-25T00:37:02;96522.03;;;17.64;73.10
57232;BME280;43488;46.934;8.276;2022-08-25T00:39:32;96526.38;;;17.71;73.28
57232;BME280;43488;46.934;8.276;2022-08-25T00:42:04;96521.59;;;17.73;73.02
57232;BME280;43488;46.934;8.276;2022-08-25T00:44:32;96525.16;;;17.56;74.09
57232;BME280;43488;46.934;8.276;2022-08-25T00:47:04;96507.53;;;17.50;74.74
57232;BME280;43488;46.934;8.276;2022-08-25T00:49:43;96516.13;;;17.57;74.47
57232;BME280;43488;46.934;8.276;2022-08-25T00:52:26;96509.13;;;17.51;74.39
57232;BME280;43488;46.934;8.276;2022-08-25T00:55:10;96509.31;;;17.45;74.35
57232;BME280;43488;46.934;8.276;2022-08-25T01:00:41;96511.25;;;17.49;73.88
57232;BME280;43488;46.934;8.276;2022-08-25T01:03:09;96520.28;;;17.48;74.17
57232;BME280;43488;46.934;8.276;2022-08-25T01:05:36;96518.38;;;17.44;74.58
57232;BME280;43488;46.934;8.276;2022-08-25T01:08:05;96517.06;;;17.46;74.56
57232;BME280;43488;46.934;8.276;2022-08-25T01:10:37;96523.69;;;17.44;74.67
57232;BME280;43488;46.934;8.276;2022-08-25T01:13:25;96521.81;;;17.44;74.42
57232;BME280;43488;46.934;8.276;2022-08-25T01:15:55;96511.44;;;17.43;74.52
57232;BME280;43488;46.934;8.276;2022-08-25T01:18:26;96517.63;;;17.48;74.03
57232;BME280;43488;46.934;8.276;2022-08-25T01:20:56;96517.06;;;17.46;74.05
57232;BME280;43488;46.934;8.276;2022-08-25T01:23:25;96509.56;;;17.43;74.41
57232;BME280;43488;46.934;8.276;2022-08-25T01:28:36;96514.16;;;17.48;74.74
57232;BME280;43488;46.934;8.276;2022-08-25T01:31:04;96506.47;;;17.51;74.48
57232;BME280;43488;46.934;8.276;2022-08-25T01:33:31;96513.38;;;17.47;74.58
57232;BME280;43488;46.934;8.276;2022-08-25T01:36:00;96507.91;;;17.37;74.75
57232;BME280;43488;46.934;8.276;2022-08-25T01:38:27;96507.22;;;17.20;75.17
57232;BME280;43488;46.934;8.276;2022-08-25T01:40:55;96509.63;;;17.21;75.60
57232;BME280;43488;46.934;8.276;2022-08-25T01:43:35;96506.44;;;17.24;75.26
57232;BME280;43488;46.934;8.276;2022-08-25T01:46:04;96509.66;;;17.26;75.17
57232;BME280;43488;46.934;8.276;2022-08-25T01:48:31;96505.13;;;17.27;75.45
57232;BME280;43488;46.934;8.276;2022-08-25T01:50:59;96511.25;;;17.27;75.41
57232;BME280;43488;46.934;8.276;2022-08-25T01:53:31;96514.19;;;17.26;75.85
57232;BME280;43488;46.934;8.276;2022-08-25T01:55:58;96514.94;;;17.21;76.27
57232;BME280;43488;46.934;8.276;2022-08-25T01:58:32;96510.72;;;17.25;75.82
57232;BME280;43488;46.934;8.276;2022-08-25T02:01:08;96528.50;;;17.20;75.65
57232;BME280;43488;46.934;8.276;2022-08-25T02:03:41;96527.97;;;17.23;75.75
57232;BME280;43488;46.934;8.276;2022-08-25T02:06:13;96526.06;;;17.18;75.72
57232;BME280;43488;46.934;8.276;2022-08-25T02:08:42;96523.66;;;17.17;75.95
57232;BME280;43488;46.934;8.276;2022-08-25T02:11:13;96534.28;;;17.17;76.33
57232;BME280;43488;46.934;8.276;2022-08-25T02:13:41;96526.31;;;17.17;76.56
57232;BME280;43488;46.934;8.276;2022-08-25T02:16:09;96533.13;;;17.08;77.11
57232;BME280;43488;46.934;8.276;2022-08-25T02:18:40;96529.41;;;17.09;77.27
57232;BME280;43488;46.934;8.276;2022-08-25T02:21:08;96529.59;;;17.02;77.64
57232;BME280;43488;46.934;8.276;2022-08-25T02:23:37;96524.28;;;17.02;77.49
57232;BME280;43488;46.934;8.276;2022-08-25T02:26:04;96528.22;;;16.99;77.61
57232;BME280;43488;46.934;8.276;2022-08-25T02:28:31;96525.00;;;16.97;77.79
57232;BME280;43488;46.934;8.276;2022-08-25T02:30:59;96517.13;;;17.02;77.63
57232;BME280;43488;46.934;8.276;2022-08-25T02:33:27;96523.47;;;17.01;77.30
57232;BME280;43488;46.934;8.276;2022-08-25T02:36:01;96522.72;;;17.06;76.91
57232;BME280;43488;46.934;8.276;2022-08-25T02:38:29;96522.44;;;17.02;76.84
57232;BME280;43488;46.934;8.276;2022-08-25T02:40:58;96508.75;;;16.94;76.88
57232;BME280;43488;46.934;8.276;2022-08-25T02:43:28;96514.34;;;16.92;76.38
57232;BME280;43488;46.934;8.276;2022-08-25T02:45:55;96514.25;;;16.87;76.66
57232;BME280;43488;46.934;8.276;2022-08-25T02:48:23;96515.34;;;16.91;76.55
57232;BME280;43488;46.934;8.276;2022-08-25T02:50:52;96527.25;;;16.84;76.32
57232;BME280;43488;46.934;8.276;2022-08-25T02:53:20;96521.38;;;16.65;77.09
57232;BME280;43488;46.934;8.276;2022-08-25T02:55:48;96525.25;;;16.57;77.90
57232;BME280;43488;46.934;8.276;2022-08-25T02:58:15;96518.63;;;16.60;78.22
57232;BME280;43488;46.934;8.276;2022-08-25T03:00:42;96525.31;;;16.62;78.02
57232;BME280;43488;46.934;8.276;2022-08-25T03:03:11;96525.66;;;16.66;78.18
57232;BME280;43488;46.934;8.276;2022-08-25T03:05:38;96533.38;;;16.67;78.24
57232;BME280;43488;46.934;8.276;2022-08-25T03:08:07;96534.88;;;16.63;78.60
57232;BME280;43488;46.934;8.276;2022-08-25T03:10:35;96535.47;;;16.65;78.80
57232;BME280;43488;46.934;8.276;2022-08-25T03:13:03;96530.72;;;16.67;78.75
57232;BME280;43488;46.934;8.276;2022-08-25T03:15:31;96544.25;;;16.66;78.63
57232;BME280;43488;46.934;8.276;2022-08-25T03:17:58;96542.88;;;16.63;78.71
57232;BME280;43488;46.934;8.276;2022-08-25T03:20:27;96551.75;;;16.69;77.86
57232;BME280;43488;46.934;8.276;2022-08-25T03:22:56;96551.44;;;16.48;78.49
57232;BME280;43488;46.934;8.276;2022-08-25T03:25:24;96549.88;;;16.53;78.45
57232;BME280;43488;46.934;8.276;2022-08-25T03:28:09;96545.31;;;16.48;78.67
57232;BME280;43488;46.934;8.276;2022-08-25T03:30:37;96539.81;;;16.55;78.53
57232;BME280;43488;46.934;8.276;2022-08-25T03:33:04;96542.47;;;16.55;78.15
57232;BME280;43488;46.934;8.276;2022-08-25T03:35:32;96535.34;;;16.55;77.55
57232;BME280;43488;46.934;8.276;2022-08-25T03:38:00;96532.19;;;16.58;77.75
57232;BME280;43488;46.934;8.276;2022-08-25T03:40:27;96535.75;;;16.47;78.73
57232;BME280;43488;46.934;8.276;2022-08-25T03:42:54;96529.63;;;16.46;79.23
57232;BME280;43488;46.934;8.276;2022-08-25T03:45:23;96518.03;;;16.36;79.27
57232;BME280;43488;46.934;8.276;2022-08-25T03:47:52;96519.88;;;16.35;79.34
57232;BME280;43488;46.934;8.276;2022-08-25T03:50:21;96522.13;;;16.43;79.01
57232;BME280;43488;46.934;8.276;2022-08-25T03:52:55;96525.53;;;16.39;78.61
57232;BME280;43488;46.934;8.276;2022-08-25T03:55:24;96526.88;;;16.41;78.91
57232;BME280;43488;46.934;8.276;2022-08-25T03:57:53;96522.69;;;16.45;78.60
57232;BME280;43488;46.934;8.276;2022-08-25T04:00:22;96526.38;;;16.44;78.70
57232;BME280;43488;46.934;8.276;2022-08-25T04:02:49;96524.78;;;16.43;78.61
57232;BME280;43488;46.934;8.276;2022-08-25T04:05:17;96526.47;;;16.49;78.61
57232;BME280;43488;46.934;8.276;2022-08-25T04:07:46;96522.22;;;16.48;78.47
57232;BME280;43488;46.934;8.276;2022-08-25T04:10:13;96523.25;;;16.47;78.58
57232;BME280;43488;46.934;8.276;2022-08-25T04:12:41;96518.09;;;16.41;79.39
57232;BME280;43488;46.934;8.276;2022-08-25T04:15:10;96516.34;;;16.46;79.17
57232;BME280;43488;46.934;8.276;2022-08-25T04:17:38;96520.84;;;16.46;78.49
57232;BME280;43488;46.934;8.276;2022-08-25T04:20:10;96521.06;;;16.44;78.26
57232;BME280;43488;46.934;8.276;2022-08-25T04:22:38;96518.41;;;16.44;78.23
57232;BME280;43488;46.934;8.276;2022-08-25T04:25:06;96517.72;;;16.32;79.27
57232;BME280;43488;46.934;8.276;2022-08-25T04:27:34;96512.31;;;16.27;79.52
57232;BME280;43488;46.934;8.276;2022-08-25T04:30:04;96516.00;;;16.26;79.79
57232;BME280;43488;46.934;8.276;2022-08-25T04:32:34;96521.16;;;16.33;79.58
57232;BME280;43488;46.934;8.276;2022-08-25T04:35:03;96524.13;;;16.36;78.54
57232;BME280;43488;46.934;8.276;2022-08-25T04:37:31;96519.66;;;16.37;78.79
57232;BME280;43488;46.934;8.276;2022-08-25T04:39:59;96520.69;;;16.36;78.37
57232;BME280;43488;46.934;8.276;2022-08-25T04:42:27;96514.81;;;16.34;78.52
57232;BME280;43488;46.934;8.276;2022-08-25T04:44:55;96521.41;;;16.31;78.58
57232;BME280;43488;46.934;8.276;2022-08-25T04:47:22;96524.06;;;16.31;78.74
57232;BME280;43488;46.934;8.276;2022-08-25T04:49:49;96519.16;;;16.23;78.94
57232;BME280;43488;46.934;8.276;2022-08-25T04:52:16;96516.41;;;16.18;79.31
57232;BME280;43488;46.934;8.276;2022-08-25T04:54:44;96528.19;;;16.22;79.48
57232;BME280;43488;46.934;8.276;2022-08-25T04:57:12;96522.88;;;16.22;79.94
57232;BME280;43488;46.934;8.276;2022-08-25T04:59:39;96524.00;;;16.26;80.38
57232;BME280;43488;46.934;8.276;2022-08-25T05:02:06;96517.63;;;16.27;80.19
57232;BME280;43488;46.934;8.276;2022-08-25T05:04:35;96516.59;;;16.28;80.09
57232;BME280;43488;46.934;8.276;2022-08-25T05:07:03;96521.97;;;16.33;79.96
57232;BME280;43488;46.934;8.276;2022-08-25T05:09:31;96517.56;;;16.39;79.37
57232;BME280;43488;46.934;8.276;2022-08-25T05:12:00;96514.50;;;16.30;79.77
57232;BME280;43488;46.934;8.276;2022-08-25T05:14:27;96516.59;;;16.28;79.84
57232;BME280;43488;46.934;8.276;2022-08-25T05:16:55;96515.81;;;16.28;79.92
57232;BME280;43488;46.934;8.276;2022-08-25T05:19:24;96509.59;;;16.22;80.05
57232;BME280;43488;46.934;8.276;2022-08-25T05:21:53;96511.75;;;16.25;80.01
57232;BME280;43488;46.934;8.276;2022-08-25T05:24:20;96516.59;;;16.28;80.40
57232;BME280;43488;46.934;8.276;2022-08-25T05:26:48;96512.41;;;16.32;80.69
57232;BME280;43488;46.934;8.276;2022-08-25T05:29:17;96502.56;;;16.33;80.20
57232;BME280;43488;46.934;8.276;2022-08-25T05:31:46;96504.53;;;16.37;79.98
57232;BME280;43488;46.934;8.276;2022-08-25T05:34:13;96508.28;;;16.41;79.62
57232;BME280;43488;46.934;8.276;2022-08-25T05:36:40;96502.41;;;16.39;80.25
57232;BME280;43488;46.934;8.276;2022-08-25T05:39:09;96505.13;;;16.44;80.33
57232;BME280;43488;46.934;8.276;2022-08-25T05:41:37;96502.31;;;16.51;80.10
57232;BME280;43488;46.934;8.276;2022-08-25T05:44:04;96504.00;;;16.57;79.47
57232;BME280;43488;46.934;8.276;2022-08-25T05:46:32;96493.16;;;16.64;79.63
57232;BME280;43488;46.934;8.276;2022-08-25T05:48:59;96500.94;;;16.48;80.29
57232;BME280;43488;46.934;8.276;2022-08-25T05:51:27;96495.22;;;16.57;79.69
57232;BME280;43488;46.934;8.276;2022-08-25T05:53:54;96498.84;;;16.50;80.23
57232;BME280;43488;46.934;8.276;2022-08-25T05:56:22;96497.53;;;16.53;80.77
57232;BME280;43488;46.934;8.276;2022-08-25T05:58:49;96496.41;;;16.66;80.06
57232;BME280;43488;46.934;8.276;2022-08-25T06:01:24;96496.50;;;16.71;79.67
57232;BME280;43488;46.934;8.276;2022-08-25T06:04:12;96493.66;;;16.77;79.73
57232;BME280;43488;46.934;8.276;2022-08-25T06:06:39;96500.41;;;16.85;79.05
57232;BME280;43488;46.934;8.276;2022-08-25T06:09:07;96489.28;;;16.88;78.49
57232;BME280;43488;46.934;8.276;2022-08-25T06:11:39;96482.41;;;16.92;78.09
57232;BME280;43488;46.934;8.276;2022-08-25T06:14:08;96482.47;;;16.97;77.71
57232;BME280;43488;46.934;8.276;2022-08-25T06:16:37;96482.03;;;17.05;77.41
57232;BME280;43488;46.934;8.276;2022-08-25T06:19:06;96484.00;;;17.15;77.36
57232;BME280;43488;46.934;8.276;2022-08-25T06:21:35;96482.50;;;17.24;77.21
57232;BME280;43488;46.934;8.276;2022-08-25T06:24:07;96473.00;;;17.28;77.34
57232;BME280;43488;46.934;8.276;2022-08-25T06:26:36;96465.91;;;17.39;77.29
57232;BME280;43488;46.934;8.276;2022-08-25T06:29:03;96469.47;;;17.50;77.96
57232;BME280;43488;46.934;8.276;2022-08-25T06:31:31;96466.09;;;17.59;78.46
57232;BME280;43488;46.934;8.276;2022-08-25T06:33:58;96467.25;;;17.69;78.24
57232;BME280;43488;46.934;8.276;2022-08-25T06:36:26;96469.75;;;17.75;78.77
57232;BME280;43488;46.934;8.276;2022-08-25T06:38:54;96470.88;;;17.84;78.35
57232;BME280;43488;46.934;8.276;2022-08-25T06:41:22;96463.22;;;17.93;78.30
57232;BME280;43488;46.934;8.276;2022-08-25T06:43:51;96461.69;;;18.02;78.37
57232;BME280;43488;46.934;8.276;2022-08-25T06:46:23;96455.63;;;18.12;78.43
57232;BME280;43488;46.934;8.276;2022-08-25T06:48:53;96462.31;;;18.19;78.99
57232;BME280;43488;46.934;8.276;2022-08-25T06:51:24;96457.31;;;18.28;79.47
57232;BME280;43488;46.934;8.276;2022-08-25T06:53:52;96451.81;;;18.40;79.42
57232;BME280;43488;46.934;8.276;2022-08-25T06:56:21;96460.09;;;18.43;80.48
57232;BME280;43488;46.934;8.276;2022-08-25T06:58:48;96467.63;;;18.57;78.31
57232;BME280;43488;46.934;8.276;2022-08-25T07:01:20;96463.59;;;18.54;75.91
57232;BME280;43488;46.934;8.276;2022-08-25T07:03:50;96464.19;;;18.61;75.59
57232;BME280;43488;46.934;8.276;2022-08-25T07:06:18;96460.00;;;18.65;75.51
57232;BME280;43488;46.934;8.276;2022-08-25T07:08:46;96460.56;;;18.78;74.72
57232;BME280;43488;46.934;8.276;2022-08-25T07:11:15;96462.47;;;18.87;73.72
57232;BME280;43488;46.934;8.276;2022-08-25T07:13:43;96459.31;;;18.95;73.33
57232;BME280;43488;46.934;8.276;2022-08-25T07:16:11;96459.34;;;19.06;73.53
57232;BME280;43488;46.934;8.276;2022-08-25T07:18:40;96452.13;;;19.06;72.52
57232;BME280;43488;46.934;8.276;2022-08-25T07:21:09;96445.22;;;19.15;71.01
57232;BME280;43488;46.934;8.276;2022-08-25T07:23:38;96448.44;;;19.27;71.10
57232;BME280;43488;46.934;8.276;2022-08-25T07:26:14;96458.59;;;19.36;71.94
57232;BME280;43488;46.934;8.276;2022-08-25T07:28:43;96452.19;;;19.37;72.51
57232;BME280;43488;46.934;8.276;2022-08-25T07:31:12;96448.25;;;19.49;72.75
57232;BME280;43488;46.934;8.276;2022-08-25T07:33:39;96444.75;;;19.54;72.83
57232;BME280;43488;46.934;8.276;2022-08-25T07:36:31;96438.13;;;19.62;72.59
57232;BME280;43488;46.934;8.276;2022-08-25T07:38:59;96451.22;;;19.68;72.75
57232;BME280;43488;46.934;8.276;2022-08-25T07:41:35;96452.28;;;19.77;71.80
57232;BME280;43488;46.934;8.276;2022-08-25T07:44:04;96453.09;;;19.83;70.62
57232;BME280;43488;46.934;8.276;2022-08-25T07:46:32;96448.56;;;19.88;70.84
57232;BME280;43488;46.934;8.276;2022-08-25T07:49:00;96451.75;;;19.96;69.66
57232;BME280;43488;46.934;8.276;2022-08-25T07:51:27;96444.81;;;20.05;69.97
57232;BME280;43488;46.934;8.276;2022-08-25T07:53:55;96450.13;;;20.10;67.60
57232;BME280;43488;46.934;8.276;2022-08-25T07:56:23;96451.75;;;20.16;67.93
57232;BME280;43488;46.934;8.276;2022-08-25T07:58:50;96449.88;;;20.22;66.96
57232;BME280;43488;46.934;8.276;2022-08-25T08:01:22;96450.13;;;20.20;65.36
57232;BME280;43488;46.934;8.276;2022-08-25T08:03:50;96447.19;;;20.27;67.54
57232;BME280;43488;46.934;8.276;2022-08-25T08:06:22;96450.09;;;20.35;68.23
57232;BME280;43488;46.934;8.276;2022-08-25T08:08:53;96455.97;;;20.37;66.66
57232;BME280;43488;46.934;8.276;2022-08-25T08:11:28;96458.41;;;20.49;66.83
57232;BME280;43488;46.934;8.276;2022-08-25T08:13:57;96456.50;;;20.60;67.69
57232;BME280;43488;46.934;8.276;2022-08-25T08:16:28;96463.16;;;20.62;68.00
57232;BME280;43488;46.934;8.276;2022-08-25T08:18:57;96467.16;;;20.70;68.76
57232;BME280;43488;46.934;8.276;2022-08-25T08:21:30;96470.34;;;20.77;70.87
57232;BME280;43488;46.934;8.276;2022-08-25T08:23:59;96475.69;;;20.82;70.62
57232;BME280;43488;46.934;8.276;2022-08-25T08:26:28;96479.44;;;20.81;69.71
57232;BME280;43488;46.934;8.276;2022-08-25T08:28:55;96479.41;;;20.86;70.80
57232;BME280;43488;46.934;8.276;2022-08-25T08:31:24;96472.72;;;20.94;71.45
57232;BME280;43488;46.934;8.276;2022-08-25T08:33:55;96473.97;;;21.07;69.39
57232;BME280;43488;46.934;8.276;2022-08-25T08:36:24;96473.97;;;21.07;70.22
57232;BME280;43488;46.934;8.276;2022-08-25T08:38:52;96467.25;;;21.14;70.12
57232;BME280;43488;46.934;8.276;2022-08-25T08:53:34;96475.94;;;21.45;67.27
57232;BME280;43488;46.934;8.276;2022-08-25T08:56:22;96482.09;;;21.51;68.14
57232;BME280;43488;46.934;8.276;2022-08-25T08:58:59;96476.94;;;21.60;64.93
57232;BME280;43488;46.934;8.276;2022-08-25T09:01:47;96472.09;;;21.62;61.34
57232;BME280;43488;46.934;8.276;2022-08-25T09:04:34;96472.59;;;21.69;64.81
57232;BME280;43488;46.934;8.276;2022-08-25T09:07:15;96467.97;;;21.79;62.22
57232;BME280;43488;46.934;8.276;2022-08-25T09:09:43;96478.09;;;21.88;63.14
57232;BME280;43488;46.934;8.276;2022-08-25T09:12:53;96474.53;;;21.97;63.62
57232;BME280;43488;46.934;8.276;2022-08-25T09:16:01;96473.16;;;22.00;63.01
57232;BME280;43488;46.934;8.276;2022-08-25T09:19:25;96478.94;;;22.17;65.18
57232;BME280;43488;46.934;8.276;2022-08-25T09:25:59;96476.88;;;22.38;65.46
57232;BME280;43488;46.934;8.276;2022-08-25T09:28:37;96464.44;;;22.47;65.97
57232;BME280;43488;46.934;8.276;2022-08-25T09:31:33;96468.56;;;22.63;66.83
57232;BME280;43488;46.934;8.276;2022-08-25T09:34:06;96474.94;;;22.67;65.52
57232;BME280;43488;46.934;8.276;2022-08-25T09:36:35;96460.56;;;22.82;65.26
57232;BME280;43488;46.934;8.276;2022-08-25T09:39:04;96462.97;;;22.84;63.79
57232;BME280;43488;46.934;8.276;2022-08-25T09:41:58;96463.50;;;22.86;63.40
57232;BME280;43488;46.934;8.276;2022-08-25T09:44:33;96459.03;;;23.00;64.68
57232;BME280;43488;46.934;8.276;2022-08-25T09:47:23;96466.16;;;23.10;65.96
57232;BME280;43488;46.934;8.276;2022-08-25T09:50:00;96457.13;;;23.24;65.15
57232;BME280;43488;46.934;8.276;2022-08-25T09:55:30;96455.09;;;23.35;65.61
57232;BME280;43488;46.934;8.276;2022-08-25T09:58:21;96452.13;;;23.37;63.35
57232;BME280;43488;46.934;8.276;2022-08-25T10:03:32;96446.84;;;23.50;65.21
57232;BME280;43488;46.934;8.276;2022-08-25T10:06:08;96452.38;;;23.59;63.52
57232;BME280;43488;46.934;8.276;2022-08-25T10:11:33;96448.19;;;23.86;63.06
57232;BME280;43488;46.934;8.276;2022-08-25T10:14:20;96439.97;;;23.96;62.41
57232;BME280;43488;46.934;8.276;2022-08-25T10:16:53;96435.53;;;24.05;62.14
57232;BME280;43488;46.934;8.276;2022-08-25T10:19:38;96436.72;;;24.12;63.67
57232;BME280;43488;46.934;8.276;2022-08-25T10:22:24;96435.63;;;24.13;60.58
57232;BME280;43488;46.934;8.276;2022-08-25T10:24:59;96433.56;;;24.24;60.22
57232;BME280;43488;46.934;8.276;2022-08-25T10:34:30;96414.00;;;24.51;57.98
57232;BME280;43488;46.934;8.276;2022-08-25T10:49:40;96405.13;;;25.06;57.03
57232;BME280;43488;46.934;8.276;2022-08-25T10:55:34;96392.59;;;25.23;56.49
57232;BME280;43488;46.934;8.276;2022-08-25T11:04:28;96381.47;;;25.39;56.92
57232;BME280;43488;46.934;8.276;2022-08-25T11:07:10;96384.25;;;25.47;55.79
57232;BME280;43488;46.934;8.276;2022-08-25T11:09:43;96381.44;;;25.52;56.97
57232;BME280;43488;46.934;8.276;2022-08-25T11:12:31;96376.91;;;25.62;55.24
57232;BME280;43488;46.934;8.276;2022-08-25T11:16:02;96377.66;;;25.76;56.75
57232;BME280;43488;46.934;8.276;2022-08-25T11:18:10;96373.75;;;25.68;53.53
57232;BME280;43488;46.934;8.276;2022-08-25T11:23:43;96367.06;;;26.11;58.53
57232;BME280;43488;46.934;8.276;2022-08-25T11:26:16;96365.84;;;26.17;55.84
57232;BME280;43488;46.934;8.276;2022-08-25T11:29:02;96364.41;;;26.19;54.61
57232;BME280;43488;46.934;8.276;2022-08-25T11:31:41;96361.13;;;26.31;54.08
57232;BME280;43488;46.934;8.276;2022-08-25T11:34:13;96363.22;;;26.34;54.89
57232;BME280;43488;46.934;8.276;2022-08-25T11:36:57;96359.34;;;26.57;54.37
57232;BME280;43488;46.934;8.276;2022-08-25T11:51:50;96364.84;;;26.92;52.94
57232;BME280;43488;46.934;8.276;2022-08-25T11:54:28;96361.03;;;27.02;53.03
57232;BME280;43488;46.934;8.276;2022-08-25T12:02:45;96360.44;;;27.22;53.52
57232;BME280;43488;46.934;8.276;2022-08-25T12:10:24;96350.28;;;27.45;52.34
57232;BME280;43488;46.934;8.276;2022-08-25T12:13:02;96349.00;;;27.34;51.39
57232;BME280;43488;46.934;8.276;2022-08-25T12:18:37;96345.34;;;27.47;52.00
57232;BME280;43488;46.934;8.276;2022-08-25T12:21:10;96348.53;;;27.66;51.49
57232;BME280;43488;46.934;8.276;2022-08-25T12:23:43;96345.81;;;27.66;52.04
57232;BME280;43488;46.934;8.276;2022-08-25T12:26:46;96345.78;;;27.84;51.81
57232;BME280;43488;46.934;8.276;2022-08-25T12:32:16;96336.69;;;27.88;51.05
57232;BME280;43488;46.934;8.276;2022-08-25T12:37:59;96343.34;;;28.08;50.68
57232;BME280;43488;46.934;8.276;2022-08-25T12:45:52;96330.09;;;28.15;50.35
57232;BME280;43488;46.934;8.276;2022-08-25T12:51:15;96332.63;;;28.20;49.99
57232;BME280;43488;46.934;8.276;2022-08-25T12:53:56;96325.09;;;28.34;50.03
57232;BME280;43488;46.934;8.276;2022-08-25T12:59:17;96324.50;;;28.58;49.01
57232;BME280;43488;46.934;8.276;2022-08-25T13:02:08;96317.97;;;28.59;49.59
57232;BME280;43488;46.934;8.276;2022-08-25T13:13:42;96322.69;;;28.71;48.32
57232;BME280;43488;46.934;8.276;2022-08-25T13:16:26;96314.66;;;28.83;47.56
57232;BME280;43488;46.934;8.276;2022-08-25T13:18:54;96304.69;;;28.96;47.79
57232;BME280;43488;46.934;8.276;2022-08-25T13:21:41;96312.84;;;29.17;46.95
57232;BME280;43488;46.934;8.276;2022-08-25T13:24:38;96303.25;;;28.99;46.36
57232;BME280;43488;46.934;8.276;2022-08-25T13:29:55;96300.91;;;29.30;47.01
57232;BME280;43488;46.934;8.276;2022-08-25T13:32:34;96295.13;;;29.20;47.07
57232;BME280;43488;46.934;8.276;2022-08-25T13:35:27;96292.47;;;29.11;46.28
57232;BME280;43488;46.934;8.276;2022-08-25T13:38:00;96290.75;;;29.27;46.32
57232;BME280;43488;46.934;8.276;2022-08-25T13:40:37;96293.13;;;29.29;47.54
57232;BME280;43488;46.934;8.276;2022-08-25T13:43:09;96283.97;;;29.33;45.92
57232;BME280;43488;46.934;8.276;2022-08-25T13:45:45;96282.19;;;29.37;45.76
57232;BME280;43488;46.934;8.276;2022-08-25T13:48:35;96280.28;;;29.38;45.20
57232;BME280;43488;46.934;8.276;2022-08-25T13:51:21;96281.38;;;29.58;45.27
57232;BME280;43488;46.934;8.276;2022-08-25T13:53:57;96275.56;;;29.47;45.90
57232;BME280;43488;46.934;8.276;2022-08-25T13:56:39;96278.66;;;29.58;45.19
57232;BME280;43488;46.934;8.276;2022-08-25T13:59:35;96272.00;;;29.34;44.30
57232;BME280;43488;46.934;8.276;2022-08-25T14:02:04;96265.66;;;29.51;44.18
57232;BME280;43488;46.934;8.276;2022-08-25T14:09:54;96266.94;;;29.66;44.98
57232;BME280;43488;46.934;8.276;2022-08-25T14:12:46;96262.47;;;29.82;44.92
57232;BME280;43488;46.934;8.276;2022-08-25T14:18:28;96261.78;;;29.85;44.27
57232;BME280;43488;46.934;8.276;2022-08-25T14:20:57;96253.63;;;29.73;44.49
57232;BME280;43488;46.934;8.276;2022-08-25T14:23:28;96263.59;;;29.81;44.13
57232;BME280;43488;46.934;8.276;2022-08-25T14:25:57;96262.91;;;29.96;43.50
57232;BME280;43488;46.934;8.276;2022-08-25T14:28:28;96255.66;;;29.88;43.85
57232;BME280;43488;46.934;8.276;2022-08-25T14:31:06;96264.28;;;29.90;42.83
57232;BME280;43488;46.934;8.276;2022-08-25T14:33:45;96256.00;;;29.87;43.97
57232;BME280;43488;46.934;8.276;2022-08-25T14:36:14;96259.31;;;29.92;44.04
57232;BME280;43488;46.934;8.276;2022-08-25T14:38:42;96255.44;;;29.81;43.30
57232;BME280;43488;46.934;8.276;2022-08-25T14:41:09;96253.63;;;29.85;43.95
57232;BME280;43488;46.934;8.276;2022-08-25T14:43:36;96256.44;;;29.77;42.65
57232;BME280;43488;46.934;8.276;2022-08-25T14:46:15;96254.53;;;29.77;42.47
57232;BME280;43488;46.934;8.276;2022-08-25T14:48:47;96250.03;;;29.81;43.16
57232;BME280;43488;46.934;8.276;2022-08-25T14:51:15;96248.66;;;29.87;43.91
57232;BME280;43488;46.934;8.276;2022-08-25T14:53:43;96247.78;;;30.08;43.90
57232;BME280;43488;46.934;8.276;2022-08-25T14:56:10;96251.19;;;30.17;43.17
57232;BME280;43488;46.934;8.276;2022-08-25T14:58:38;96249.34;;;29.96;43.27
57232;BME280;43488;46.934;8.276;2022-08-25T15:01:07;96253.44;;;29.90;43.64
57232;BME280;43488;46.934;8.276;2022-08-25T15:03:39;96237.59;;;29.92;42.63
57232;BME280;43488;46.934;8.276;2022-08-25T15:06:13;96238.25;;;29.89;43.31
57232;BME280;43488;46.934;8.276;2022-08-25T15:08:42;96238.94;;;29.98;42.36
57232;BME280;43488;46.934;8.276;2022-08-25T15:11:29;96237.16;;;29.90;43.13
57232;BME280;43488;46.934;8.276;2022-08-25T15:13:57;96231.44;;;29.71;42.49
57232;BME280;43488;46.934;8.276;2022-08-25T15:16:40;96222.84;;;29.57;43.61
57232;BME280;43488;46.934;8.276;2022-08-25T15:19:10;96227.41;;;29.44;43.78
57232;BME280;43488;46.934;8.276;2022-08-25T15:21:42;96225.38;;;29.41;44.01
57232;BME280;43488;46.934;8.276;2022-08-25T15:24:12;96230.84;;;29.53;44.01
57232;BME280;43488;46.934;8.276;2022-08-25T15:26:58;96225.13;;;29.67;42.84
57232;BME280;43488;46.934;8.276;2022-08-25T15:29:28;96219.91;;;29.62;42.48
57232;BME280;43488;46.934;8.276;2022-08-25T15:31:58;96221.91;;;29.53;42.85
57232;BME280;43488;46.934;8.276;2022-08-25T15:34:27;96225.25;;;29.37;43.87